x

North Equatorial Two - 890 Nm East Of Martinique (41041) Wave Buoy

8:50pm - Fri 6th Mar 2015 All times are UTC.

  • Sig Wave height 6.6ft
  • Swell Direction
  • Peak Period 14s
  • Average Period 6s
  • Wind
    18mph, 20mph gusts
  • Sea Temp 78°f
  • Air Temp 73°f
  • Sea Pressure 1015.5mb

More Historic Weather Station data

Upgrade to MSW Pro to gain access to the past 30 days of data for over 8000 Wavebouys and Weather Stations around the globe.

Join Pro

Comparision Forecast

View Surf forecast
   
Fri 03/06 8:50pm 6.5ft 14s 6s 18 20 mph 1015.5mb 78f 73f
7:50pm 7ft 8s 6s 16 18 mph 1015.1mb 78f 74f
6:50pm 6ft 8s 6s 20 22 mph 1014.8mb 78f 73f
5:50pm 6ft 13s 6s 16 18 mph 1014.8mb 78f 74f
4:50pm 6ft 8s 6s 16 18 mph 1015.6mb 78f 75f
3:50pm 6.5ft 9s 7s 13 18 mph 1016.1mb 78f 76f
2:50pm 6.5ft 6s 6s 16 18 mph 1016.9mb 78f 76f
1:50pm 6.5ft 9s 6s 16 18 mph 1017.4mb 78f 76f
12:50pm 6.5ft 8s 6s 16 18 mph 1017.1mb 78f 75f
11:50am 6.5ft 9s 6s 18 20 mph 1016.6mb 78f 76f
10:50am 6ft 7s 6s 16 20 mph 1016.2mb 77f 76f
9:50am 6.5ft 8s 6s 16 20 mph 1015.5mb 77f 75f
8:50am 7ft 8s 6s 18 20 mph 1015.1mb 77f 76f
7:50am 6.5ft 9s 6s 18 22 mph 1014.7mb 78f 76f
5:50am 6.5ft 9s 6s 18 22 mph 1015mb 78f 76f
4:50am 7ft 9s 6s 18 22 mph 1015.5mb 78f 76f
3:50am 6.5ft 9s 6s 18 22 mph 1016.4mb 78f 76f
2:50am 6.5ft 8s 6s 18 22 mph 1016.9mb 78f 76f
1:50am 7ft 8s 6s 20 25 mph 1016.8mb 78f 76f
12:50am 7ft 8s 6s 20 25 mph 1016.9mb 78f 76f
Thu 03/05 11:50pm 7ft 8s 6s 20 22 mph 1016.8mb 78f 76f
10:50pm 7ft 7s 6s 18 22 mph 1016.1mb 78f 76f
9:50pm 7ft 6s 6s 16 20 mph 1015.5mb 78f 76f
8:50pm 7ft 7s 6s 16 20 mph 1015.2mb 78f 74f
7:50pm 6.5ft 9s 6s 20 22 mph 1014.7mb 78f 74f
6:50pm 6.5ft 7s 6s 16 20 mph 1014.6mb 78f 72f
5:50pm 6.5ft 9s 6s 13 16 mph 1014.8mb 78f 73f
4:50pm 6ft 10s 6s 22 27 mph 1015.1mb 78f 73f
3:50pm 6ft 10s 6s 18 20 mph 1016mb 78f 76f
2:50pm 7ft 8s 6s 13 18 mph 1017mb 78f 73f
1:50pm 6.5ft 10s 6s 25 27 mph 1017.2mb 78f 74f
12:50pm 6ft 10s 6s 20 27 mph 1017.3mb 78f 73f
11:50am 6ft 8s 6s 13 20 mph 1016.8mb 78f 75f
10:50am 6ft 9s 6s 7 9 mph 1016.4mb 78f 74f
9:50am 6ft 10s 6s 13 18 mph 1015.6mb 78f 75f
8:50am 5.5ft 11s 6s 16 18 mph 1015.1mb 78f 76f
7:50am 6ft 10s 6s 16 20 mph 1014.7mb 78f 75f
6:50am 6ft 9s 6s 18 20 mph 1014.6mb 78f 76f
5:50am 6ft 11s 7s 16 18 mph 1014.7mb 78f 76f
4:50am 6ft 9s 6s 13 16 mph 1015.6mb 78f 75f
3:50am 6ft 9s 6s 16 22 mph 1016.2mb 78f 76f
2:50am 6ft 8s 7s 16 18 mph 1016.7mb 78f 76f
1:50am 5.5ft 9s 6s 13 16 mph 1016.9mb 78f 76f
12:50am 5.5ft 9s 6s 13 16 mph 1017mb 78f 76f
Wed 03/04 11:50pm 6ft 10s 6s 13 18 mph 1016.4mb 78f 76f
10:50pm 5.5ft 8s 6s 13 16 mph 1016mb 78f 76f
9:50pm 6ft 9s 6s 13 18 mph 1015.2mb 78f 77f
8:50pm 6ft 10s 7s 11 13 mph 1015.2mb 78f 76f
7:50pm 6ft 10s 7s 9 11 mph 1015.1mb 78f 77f
6:50pm 6ft 8s 6s 11 16 mph 1014.4mb 78f 76f
5:50pm 6ft 9s 6s 13 16 mph 1014.6mb 78f 77f
4:50pm 6ft 8s 6s 11 13 mph 1015.3mb 78f 77f
3:50pm 6ft 9s 6s 13 16 mph 1015.6mb 78f 76f
2:50pm 7ft 10s 7s 16 18 mph 1015.8mb 78f 76f
1:50pm 6ft 10s 6s 16 20 mph 1016.6mb 78f 77f
12:50pm 6ft 10s 7s 16 20 mph 1016.5mb 78f 76f
11:50am 6ft 10s 6s 16 18 mph 1016.5mb 78f 76f
10:50am 6ft 10s 7s 16 18 mph 1015.9mb 78f 76f
9:50am 7ft 10s 7s 13 16 mph 1015.4mb 77f 76f
8:50am 6.5ft 9s 6s 16 18 mph 1014.4mb 77f 76f
7:50am 6.5ft 8s 7s 13 18 mph 1014.6mb 78f 76f
6:50am  -   -   -  13 16 mph 1014.7mb 78f 76f
5:50am 6.5ft 9s 7s 13 16 mph 1015mb 78f 76f
4:50am 7ft 10s 7s 16 18 mph 1015.2mb 78f 76f
3:50am 7ft 10s 7s 16 18 mph 1015.8mb 78f 76f
2:50am 7ft 11s 7s 16 18 mph 1016.5mb 78f 76f
1:50am 6.5ft 11s 7s 16 20 mph 1016.5mb 78f 76f
12:50am 7.5ft 10s 7s 16 18 mph 1016.7mb 78f 76f
Tue 03/03 11:50pm 7ft 10s 7s 16 20 mph 1016.5mb 78f 76f
10:50pm 7ft 10s 7s 18 20 mph 1015.4mb 78f 76f
9:50pm 7.5ft 10s 7s 16 20 mph 1015mb 78f 76f
8:50pm 7ft 11s 7s 16 20 mph 1014.5mb 78f 76f
7:50pm 7.5ft 10s 7s 16 18 mph 1014.2mb 78f 76f
6:50pm 8ft 11s 7s 16 20 mph 1013.9mb 78f 76f
5:50pm 8ft 10s 7s 16 20 mph 1014.3mb 78f 76f
4:50pm 7.5ft 10s 7s 16 20 mph 1015.1mb 78f 76f
3:50pm 7ft 11s 6s 18 22 mph 1015.4mb 78f 76f
2:50pm 8ft 8s 7s 18 22 mph 1016.2mb 78f 76f
1:50pm 8.5ft 9s 7s 20 25 mph 1017mb 78f 76f
12:50pm 8ft 11s 7s 20 22 mph 1016.6mb 78f 76f
11:50am 8ft 10s 7s 20 25 mph 1016.4mb 78f 76f
10:50am 8ft 11s 7s 20 22 mph 1015.7mb 78f 76f
9:50am 9ft 10s 7s 18 20 mph 1015.3mb 78f 76f
8:50am 8.5ft 11s 7s 18 20 mph 1014.7mb 78f 76f
7:50am 9ft 9s 7s 18 20 mph 1014.2mb 78f 76f
6:50am 9ft 11s 7s 18 22 mph 1014.1mb 78f 76f
5:50am 9ft 11s 7s 18 22 mph 1014.1mb 78f 76f
4:50am 9ft 9s 7s 18 22 mph 1014.3mb 78f 76f
3:50am 9.5ft 10s 7s 20 22 mph 1015mb 78f 76f
2:50am 9ft 11s 7s 22 25 mph 1015.6mb 78f 76f
1:50am 9ft 11s 7s 20 22 mph 1015.8mb 78f 76f
12:50am 9ft 9s 7s 20 22 mph 1015.9mb 78f 76f
Mon 03/02 11:50pm 9ft 11s 7s 22 27 mph 1015.6mb 78f 76f
10:50pm 9ft 11s 7s 20 22 mph 1015.1mb 78f 76f